createdAt,value
2023-10-29T00:00:17.233Z,4.38
2023-10-29T00:02:44.055Z,4.30
2023-10-29T00:05:10.954Z,4.00
2023-10-29T00:07:37.511Z,3.45
2023-10-29T00:10:06.964Z,4.03
2023-10-29T00:12:33.659Z,3.58
2023-10-29T00:15:00.464Z,2.92
2023-10-29T00:17:27.529Z,3.53
2023-10-29T00:19:54.198Z,3.17
2023-10-29T00:22:20.797Z,4.40
2023-10-29T00:24:47.727Z,3.63
2023-10-29T00:27:15.836Z,4.13
2023-10-29T00:29:42.535Z,3.63
2023-10-29T00:32:09.246Z,3.50
2023-10-29T00:34:35.828Z,3.70
2023-10-29T00:37:02.420Z,4.75
2023-10-29T00:39:29.239Z,3.80
2023-10-29T00:41:55.986Z,3.80
2023-10-29T00:44:24.129Z,4.40
2023-10-29T00:46:50.859Z,3.85
2023-10-29T00:49:17.649Z,3.97
2023-10-29T00:51:45.532Z,3.83
2023-10-29T00:54:12.115Z,3.10
2023-10-29T00:56:38.936Z,3.70
2023-10-29T00:59:05.876Z,3.45
2023-10-29T01:01:34.349Z,3.05
2023-10-29T01:04:01.160Z,3.38
2023-10-29T01:06:27.930Z,3.28
2023-10-29T01:08:55.503Z,3.65
2023-10-29T01:11:22.229Z,3.30
2023-10-29T01:13:48.918Z,3.60
2023-10-29T01:16:15.511Z,3.47
2023-10-29T01:18:43.453Z,3.22
2023-10-29T01:21:10.080Z,3.40
2023-10-29T01:23:37.611Z,3.33
2023-10-29T01:26:04.249Z,3.67
2023-10-29T01:28:30.912Z,3.22
2023-10-29T01:30:57.633Z,3.58
2023-10-29T01:33:24.385Z,3.15
2023-10-29T01:35:52.604Z,3.22
2023-10-29T01:38:19.322Z,2.60
2023-10-29T01:40:45.914Z,2.70
2023-10-29T01:43:12.556Z,2.90
2023-10-29T01:45:39.199Z,3.35
2023-10-29T01:48:06.291Z,2.88
2023-10-29T01:50:32.987Z,2.30
2023-10-29T01:53:01.140Z,2.50
2023-10-29T01:55:27.763Z,2.65
2023-10-29T01:57:54.428Z,2.67
2023-10-29T02:00:21.282Z,2.53
2023-10-29T02:02:47.989Z,2.50
2023-10-29T02:05:14.729Z,2.17
2023-10-29T02:07:41.335Z,2.42
2023-10-29T02:10:10.200Z,2.30
2023-10-29T02:12:37.031Z,2.20
2023-10-29T02:15:04.776Z,2.08
2023-10-29T02:17:31.592Z,3.22
2023-10-29T02:19:58.373Z,2.50
2023-10-29T02:22:26.583Z,2.20
2023-10-29T02:24:53.303Z,2.45
2023-10-29T02:27:19.876Z,2.03
2023-10-29T02:29:46.600Z,2.60
2023-10-29T02:32:13.467Z,2.10
2023-10-29T02:34:40.329Z,1.90
2023-10-29T02:37:06.954Z,2.65
2023-10-29T02:39:34.952Z,2.30
2023-10-29T02:42:01.699Z,2.00
2023-10-29T02:44:28.527Z,2.28
2023-10-29T02:46:55.149Z,2.45
2023-10-29T02:49:21.742Z,2.25
2023-10-29T02:51:48.434Z,2.10
2023-10-29T02:54:15.129Z,2.55
2023-10-29T02:56:43.185Z,2.90
2023-10-29T02:59:09.888Z,2.38
2023-10-29T03:01:36.880Z,1.95
2023-10-29T03:04:04.146Z,2.28
2023-10-29T03:06:30.952Z,2.75
2023-10-29T03:08:57.597Z,2.53
2023-10-29T03:11:24.441Z,1.95
2023-10-29T03:13:52.530Z,2.53
2023-10-29T03:16:19.198Z,2.50
2023-10-29T03:18:48.719Z,2.10
2023-10-29T03:21:16.398Z,2.45
2023-10-29T03:23:43.158Z,2.33
2023-10-29T03:26:09.919Z,2.20
2023-10-29T03:28:36.662Z,2.85
2023-10-29T03:31:11.157Z,2.28
2023-10-29T03:33:37.854Z,2.50
2023-10-29T03:36:04.947Z,2.25
2023-10-29T03:38:31.801Z,2.95
2023-10-29T03:40:58.607Z,2.30
2023-10-29T03:43:25.210Z,2.33
2023-10-29T03:45:51.972Z,1.90
2023-10-29T03:48:20.033Z,2.35
2023-10-29T03:50:46.799Z,2.10
2023-10-29T03:53:13.459Z,2.25
2023-10-29T03:55:40.144Z,2.03
2023-10-29T03:58:06.782Z,2.20
2023-10-29T04:00:33.610Z,1.95
2023-10-29T04:03:00.381Z,2.10
2023-10-29T04:05:28.386Z,2.10
2023-10-29T04:07:54.973Z,2.20
2023-10-29T04:10:21.562Z,2.38
2023-10-29T04:12:49.827Z,2.30
2023-10-29T04:15:16.671Z,2.75
2023-10-29T04:17:43.300Z,2.40
2023-10-29T04:20:10.597Z,2.22
2023-10-29T04:22:38.762Z,2.40
2023-10-29T04:25:06.183Z,2.50
2023-10-29T04:27:32.900Z,2.28
2023-10-29T04:29:59.608Z,2.20
2023-10-29T04:32:26.289Z,2.50
2023-10-29T04:34:52.913Z,2.08
2023-10-29T04:37:19.578Z,2.58
2023-10-29T04:39:48.030Z,2.25
2023-10-29T04:42:14.734Z,2.20
2023-10-29T04:44:41.335Z,2.28
2023-10-29T04:47:07.923Z,2.53
2023-10-29T04:49:34.534Z,2.20
2023-10-29T04:52:01.108Z,2.30
2023-10-29T04:54:27.798Z,2.30
2023-10-29T04:56:55.753Z,1.90
2023-10-29T04:59:22.495Z,2.05
2023-10-29T05:01:49.214Z,3.25
2023-10-29T05:04:15.941Z,3.58
2023-10-29T05:06:42.565Z,2.10
2023-10-29T05:09:09.182Z,1.90
2023-10-29T05:11:35.979Z,2.45
2023-10-29T05:14:04.078Z,2.92
2023-10-29T05:16:30.853Z,2.45
2023-10-29T05:18:57.603Z,2.30
2023-10-29T05:21:24.183Z,1.75
2023-10-29T05:23:50.947Z,1.88
2023-10-29T05:26:17.526Z,2.05
2023-10-29T05:28:44.248Z,1.80
2023-10-29T05:31:12.335Z,2.17
2023-10-29T05:33:39.130Z,2.00
2023-10-29T05:36:06.378Z,2.50
2023-10-29T05:38:33.005Z,2.30
2023-10-29T05:40:59.695Z,2.17
2023-10-29T05:43:26.361Z,2.55
2023-10-29T05:45:53.095Z,2.08
2023-10-29T05:48:21.231Z,1.98
2023-10-29T05:50:47.820Z,1.50
2023-10-29T05:53:14.447Z,2.10
2023-10-29T05:55:41.141Z,1.70
2023-10-29T05:58:07.801Z,2.08
2023-10-29T06:00:34.533Z,2.15
2023-10-29T06:03:01.334Z,2.15
2023-10-29T06:05:29.564Z,2.00
2023-10-29T06:07:57.421Z,1.67
2023-10-29T06:10:24.096Z,2.08
2023-10-29T06:12:50.736Z,1.60
2023-10-29T06:15:17.712Z,1.60
2023-10-29T06:17:44.427Z,1.90
2023-10-29T06:20:11.860Z,2.13
2023-10-29T06:22:39.864Z,2.10
2023-10-29T06:25:09.048Z,2.28
2023-10-29T06:27:35.597Z,9.52
2023-10-29T06:30:02.377Z,3.20
2023-10-29T06:32:29.061Z,2.25
2023-10-29T06:34:55.921Z,1.83
2023-10-29T06:37:22.550Z,2.05
2023-10-29T06:39:50.698Z,2.05
2023-10-29T06:42:17.385Z,1.85
2023-10-29T06:44:44.009Z,2.33
2023-10-29T06:47:10.673Z,3.90
2023-10-29T06:49:37.479Z,2.45
2023-10-29T06:52:04.628Z,2.30
2023-10-29T06:54:31.311Z,2.90
2023-10-29T06:56:59.311Z,2.00
2023-10-29T06:59:26.252Z,8.48
2023-10-29T07:01:52.985Z,2.22
2023-10-29T07:04:19.867Z,2.10
2023-10-29T07:06:47.885Z,1.70
2023-10-29T07:09:14.581Z,1.67
2023-10-29T07:11:41.728Z,1.85
2023-10-29T07:14:09.990Z,1.85
2023-10-29T07:16:36.682Z,1.90
2023-10-29T07:19:03.434Z,1.63
2023-10-29T07:21:30.845Z,1.95
2023-10-29T07:23:57.703Z,2.00
2023-10-29T07:26:24.354Z,2.38
2023-10-29T07:28:51.113Z,1.67
2023-10-29T07:31:21.667Z,1.80
2023-10-29T07:33:48.674Z,2.05
2023-10-29T07:36:15.434Z,1.67
2023-10-29T07:38:42.061Z,1.50
2023-10-29T07:41:08.827Z,1.70
2023-10-29T07:43:35.632Z,1.50
2023-10-29T07:46:03.135Z,1.73
2023-10-29T07:48:31.533Z,1.50
2023-10-29T07:50:58.185Z,1.58
2023-10-29T07:53:25.067Z,1.65
2023-10-29T07:55:51.699Z,1.70
2023-10-29T07:58:18.486Z,1.70
2023-10-29T08:00:45.189Z,2.72
2023-10-29T08:03:11.942Z,1.48
2023-10-29T08:05:40.135Z,1.60
2023-10-29T08:08:06.875Z,1.70
2023-10-29T08:10:33.749Z,1.58
2023-10-29T08:13:00.535Z,1.38
2023-10-29T08:15:27.142Z,2.08
2023-10-29T08:17:53.893Z,1.75
2023-10-29T08:20:20.957Z,1.58
2023-10-29T08:22:48.945Z,1.55
2023-10-29T08:25:15.617Z,2.05
2023-10-29T08:27:42.430Z,1.45
2023-10-29T08:30:10.024Z,2.00
2023-10-29T08:32:36.941Z,1.95
2023-10-29T08:35:04.090Z,1.52
2023-10-29T08:37:33.068Z,1.83
2023-10-29T08:40:01.210Z,1.52
2023-10-29T08:42:28.442Z,1.75
2023-10-29T08:44:56.610Z,1.75
2023-10-29T08:47:23.528Z,1.48
2023-10-29T08:49:50.258Z,1.40
2023-10-29T08:52:17.096Z,1.52
2023-10-29T08:54:43.683Z,1.08
2023-10-29T08:57:12.041Z,1.73
2023-10-29T08:59:38.943Z,1.17
2023-10-29T09:02:05.998Z,1.25
2023-10-29T09:04:37.641Z,1.77
2023-10-29T09:07:04.439Z,1.20
2023-10-29T09:09:31.107Z,1.25
2023-10-29T09:11:57.678Z,1.70
2023-10-29T09:14:25.737Z,1.35
2023-10-29T09:16:52.463Z,1.08
2023-10-29T09:19:19.134Z,1.15
2023-10-29T09:21:45.762Z,1.20
2023-10-29T09:24:12.702Z,1.20
2023-10-29T09:26:39.534Z,1.33
2023-10-29T09:29:06.120Z,1.58
2023-10-29T09:31:34.117Z,1.45
2023-10-29T09:34:01.097Z,1.20
2023-10-29T09:36:27.824Z,1.30
2023-10-29T09:38:54.629Z,1.70
2023-10-29T09:41:21.237Z,1.17
2023-10-29T09:43:48.013Z,1.15
2023-10-29T09:46:14.758Z,1.10
2023-10-29T09:48:44.343Z,1.30
2023-10-29T09:51:11.130Z,1.38
2023-10-29T09:53:38.716Z,1.25
2023-10-29T09:56:08.463Z,0.98
2023-10-29T09:58:35.172Z,1.23
2023-10-29T10:01:02.028Z,1.10
2023-10-29T10:03:28.922Z,1.30
2023-10-29T10:05:58.212Z,1.58
2023-10-29T10:08:25.756Z,1.20
2023-10-29T10:10:52.563Z,1.35
2023-10-29T10:13:19.628Z,1.42
2023-10-29T10:15:46.289Z,1.33
2023-10-29T10:18:14.898Z,0.90
2023-10-29T10:20:42.949Z,0.98
2023-10-29T10:23:11.272Z,1.05
2023-10-29T10:25:38.652Z,1.45
2023-10-29T10:28:05.896Z,1.60
2023-10-29T10:30:34.393Z,1.00
2023-10-29T10:33:12.140Z,1.00
2023-10-29T10:35:39.990Z,1.17
2023-10-29T10:38:06.751Z,1.20
2023-10-29T10:40:34.992Z,1.13
2023-10-29T10:43:01.564Z,1.20
2023-10-29T10:45:30.188Z,0.85
2023-10-29T10:47:58.189Z,1.10
2023-10-29T10:50:25.789Z,0.98
2023-10-29T10:52:53.314Z,0.80
2023-10-29T10:55:41.305Z,0.80
2023-10-29T10:58:13.597Z,1.20
2023-10-29T11:00:40.285Z,2.28
2023-10-29T11:03:25.173Z,1.13
2023-10-29T11:05:56.334Z,0.93
2023-10-29T11:08:23.268Z,1.20
2023-10-29T11:10:50.025Z,0.93
2023-10-29T11:13:22.086Z,1.05
2023-10-29T11:15:50.120Z,1.20
2023-10-29T11:18:27.666Z,0.90
2023-10-29T11:20:55.846Z,1.10
2023-10-29T11:23:27.442Z,1.30
2023-10-29T11:26:19.903Z,0.80
2023-10-29T11:28:48.404Z,1.20
2023-10-29T11:31:16.378Z,2.15
2023-10-29T11:33:44.603Z,1.20
2023-10-29T11:36:31.577Z,1.05
2023-10-29T11:39:31.869Z,1.27
2023-10-29T11:41:58.853Z,1.13
2023-10-29T11:44:27.393Z,0.90
2023-10-29T11:47:04.500Z,0.98
2023-10-29T11:49:51.737Z,1.15
2023-10-29T11:52:18.338Z,0.80
2023-10-29T11:54:44.999Z,0.95
2023-10-29T11:57:13.002Z,0.80
2023-10-29T11:59:54.701Z,1.00
2023-10-29T12:02:21.496Z,0.80
2023-10-29T12:04:48.701Z,0.90
2023-10-29T12:07:24.830Z,0.95
2023-10-29T12:10:00.656Z,1.05
2023-10-29T12:12:27.367Z,1.17
2023-10-29T12:14:55.440Z,1.30
2023-10-29T12:17:22.173Z,0.93
2023-10-29T12:19:49.128Z,0.80
2023-10-29T12:22:21.579Z,0.90
2023-10-29T12:24:50.551Z,1.30
2023-10-29T12:27:17.808Z,0.90
2023-10-29T12:29:44.611Z,1.08
2023-10-29T12:32:19.471Z,1.15
2023-10-29T12:34:51.943Z,0.85
2023-10-29T12:37:23.216Z,0.80
2023-10-29T12:39:50.394Z,0.95
2023-10-29T12:42:17.089Z,0.90
2023-10-29T12:44:51.802Z,0.80
2023-10-29T12:47:20.058Z,0.90
2023-10-29T12:49:57.267Z,0.98
2023-10-29T12:52:23.993Z,1.42
2023-10-29T12:54:50.699Z,0.90
2023-10-29T12:57:17.495Z,1.00
2023-10-29T12:59:44.621Z,0.70
2023-10-29T13:02:22.930Z,1.40
2023-10-29T13:04:49.804Z,0.80
2023-10-29T13:07:16.848Z,1.27
2023-10-29T13:09:43.506Z,1.20
2023-10-29T13:12:10.644Z,0.88
2023-10-29T13:14:37.574Z,0.90
2023-10-29T13:17:04.812Z,0.82
2023-10-29T13:19:32.983Z,0.77
2023-10-29T13:21:59.989Z,1.00
2023-10-29T13:24:26.776Z,1.00
2023-10-29T13:26:53.945Z,1.00
2023-10-29T13:29:21.039Z,0.95
2023-10-29T13:31:47.785Z,0.80
2023-10-29T13:34:14.635Z,0.80
2023-10-29T13:36:43.104Z,0.90
2023-10-29T13:39:10.610Z,0.80
2023-10-29T13:41:38.072Z,0.90
2023-10-29T13:44:04.972Z,0.80
2023-10-29T13:46:31.801Z,0.95
2023-10-29T13:48:58.721Z,1.02
2023-10-29T13:51:25.519Z,0.85
2023-10-29T13:53:53.508Z,1.15
2023-10-29T13:56:20.429Z,0.90
2023-10-29T13:58:47.020Z,0.90
2023-10-29T14:01:17.817Z,0.70
2023-10-29T14:03:44.819Z,0.77
2023-10-29T14:06:11.567Z,0.90
2023-10-29T14:08:38.428Z,1.13
2023-10-29T14:11:06.856Z,0.90
2023-10-29T14:13:33.673Z,0.90
2023-10-29T14:16:01.050Z,1.08
2023-10-29T14:18:27.749Z,0.70
2023-10-29T14:20:54.384Z,0.63
2023-10-29T14:23:21.066Z,0.90
2023-10-29T14:25:47.705Z,1.15
2023-10-29T14:28:15.694Z,0.65
2023-10-29T14:30:43.255Z,1.17
2023-10-29T14:33:10.012Z,1.00
2023-10-29T14:35:36.701Z,1.08
2023-10-29T14:38:03.683Z,1.00
2023-10-29T14:40:30.533Z,0.65
2023-10-29T14:43:14.591Z,1.33
2023-10-29T14:45:45.151Z,0.75
2023-10-29T14:48:11.827Z,7.28
2023-10-29T14:50:38.490Z,3.50
2023-10-29T14:53:05.229Z,0.90
2023-10-29T14:55:34.161Z,0.63
2023-10-29T14:58:01.748Z,0.90
2023-10-29T15:00:28.506Z,0.88
2023-10-29T15:02:56.695Z,0.43
2023-10-29T15:05:23.409Z,0.80
2023-10-29T15:07:50.138Z,0.70
2023-10-29T15:10:16.986Z,0.70
2023-10-29T15:12:43.714Z,0.73
2023-10-29T15:15:26.485Z,0.77
2023-10-29T15:17:58.528Z,1.00
2023-10-29T15:20:25.380Z,1.00
2023-10-29T15:22:52.091Z,0.82
2023-10-29T15:25:19.140Z,0.82
2023-10-29T15:27:45.774Z,0.90
2023-10-29T15:30:13.107Z,1.33
2023-10-29T15:32:39.941Z,1.10
2023-10-29T15:35:08.733Z,0.68
2023-10-29T15:37:35.389Z,0.98
2023-10-29T15:40:02.070Z,0.70
2023-10-29T15:42:28.800Z,0.82
2023-10-29T15:44:55.437Z,1.00
2023-10-29T15:47:22.065Z,1.27
2023-10-29T15:49:53.318Z,1.08
2023-10-29T15:52:21.352Z,0.98
2023-10-29T15:54:49.092Z,0.70
2023-10-29T15:57:16.118Z,0.80
2023-10-29T15:59:43.209Z,0.90
2023-10-29T16:02:10.057Z,0.80
2023-10-29T16:04:36.773Z,0.93
2023-10-29T16:07:06.653Z,2.33
2023-10-29T16:09:34.875Z,0.90
2023-10-29T16:12:01.716Z,0.90
2023-10-29T16:14:28.585Z,1.10
2023-10-29T16:16:55.184Z,1.30
2023-10-29T16:19:21.805Z,1.30
2023-10-29T16:21:48.482Z,1.20
2023-10-29T16:24:15.182Z,0.90
2023-10-29T16:26:43.222Z,0.90
2023-10-29T16:29:09.853Z,0.77
2023-10-29T16:31:36.465Z,0.98
2023-10-29T16:34:03.303Z,1.05
2023-10-29T16:36:30.114Z,1.00
2023-10-29T16:38:56.876Z,0.82
2023-10-29T16:41:23.503Z,1.00
2023-10-29T16:43:53.419Z,0.98
2023-10-29T16:46:21.813Z,1.02
2023-10-29T16:48:48.576Z,0.90
2023-10-29T16:51:15.263Z,1.00
2023-10-29T16:53:41.990Z,0.90
2023-10-29T16:56:09.334Z,0.90
2023-10-29T16:58:35.891Z,1.10
2023-10-29T17:01:04.546Z,0.68
2023-10-29T17:03:31.480Z,1.17
2023-10-29T17:05:58.386Z,1.00
2023-10-29T17:08:25.136Z,0.90
2023-10-29T17:10:56.491Z,0.77
2023-10-29T17:13:23.286Z,1.00
2023-10-29T17:15:57.223Z,0.60
2023-10-29T17:18:25.342Z,0.70
2023-10-29T17:20:52.093Z,0.98
2023-10-29T17:23:18.717Z,0.95
2023-10-29T17:25:45.432Z,0.98
2023-10-29T17:28:12.107Z,1.10
2023-10-29T17:30:38.791Z,1.00
2023-10-29T17:33:05.552Z,1.30
2023-10-29T17:35:33.696Z,1.27
2023-10-29T17:38:00.367Z,1.10
2023-10-29T17:40:26.983Z,1.30
2023-10-29T17:42:54.026Z,1.10
2023-10-29T17:45:20.676Z,1.45
2023-10-29T17:47:47.794Z,1.90
2023-10-29T17:50:14.509Z,1.20
2023-10-29T17:52:42.646Z,1.35
2023-10-29T17:55:09.463Z,1.45
2023-10-29T17:57:36.010Z,1.45
2023-10-29T18:00:02.851Z,1.20
2023-10-29T18:02:29.717Z,1.42
2023-10-29T18:04:56.539Z,1.60
2023-10-29T18:07:23.374Z,1.50
2023-10-29T18:09:51.471Z,1.00
2023-10-29T18:12:18.103Z,1.42
2023-10-29T18:14:44.768Z,1.00
2023-10-29T18:17:11.352Z,1.27
2023-10-29T18:19:38.133Z,1.63
2023-10-29T18:22:04.742Z,1.30
2023-10-29T18:24:31.338Z,1.00
2023-10-29T18:26:59.473Z,1.20
2023-10-29T18:29:26.050Z,1.30
2023-10-29T18:31:52.712Z,0.90
2023-10-29T18:34:19.466Z,1.20
2023-10-29T18:36:46.085Z,1.20
2023-10-29T18:39:13.417Z,1.15
2023-10-29T18:41:40.179Z,1.63
2023-10-29T18:44:08.420Z,1.30
2023-10-29T18:46:35.123Z,1.77
2023-10-29T18:49:01.860Z,1.27
2023-10-29T18:51:28.518Z,1.10
2023-10-29T18:53:55.138Z,1.00
2023-10-29T18:56:21.792Z,1.48
2023-10-29T18:58:48.415Z,1.17
2023-10-29T19:01:16.440Z,0.80
2023-10-29T19:03:43.614Z,1.00
2023-10-29T19:06:11.648Z,0.80
2023-10-29T19:08:38.438Z,0.80
2023-10-29T19:11:06.555Z,0.80
2023-10-29T19:13:33.546Z,0.80
2023-10-29T19:16:04.648Z,1.10
2023-10-29T19:18:33.290Z,0.88
2023-10-29T19:21:02.587Z,1.00
2023-10-29T19:23:29.438Z,0.80
2023-10-29T19:25:56.025Z,0.98
2023-10-29T19:28:22.780Z,0.80
2023-10-29T19:31:10.984Z,0.85
2023-10-29T19:33:37.867Z,0.90
2023-10-29T19:36:09.196Z,0.85
2023-10-29T19:38:35.841Z,0.70
2023-10-29T19:41:02.763Z,1.00
2023-10-29T19:43:29.539Z,1.10
2023-10-29T19:45:56.746Z,1.00
2023-10-29T19:48:23.492Z,0.70
2023-10-29T19:50:58.136Z,2.20
2023-10-29T19:53:24.873Z,0.70
2023-10-29T19:55:51.565Z,0.70
2023-10-29T19:58:18.310Z,0.70
2023-10-29T20:00:45.026Z,0.60
2023-10-29T20:03:11.742Z,0.57
2023-10-29T20:05:38.400Z,0.80
2023-10-29T20:08:07.138Z,0.70
2023-10-29T20:10:35.337Z,0.52
2023-10-29T20:13:02.142Z,0.60
2023-10-29T20:15:29.062Z,0.68
2023-10-29T20:17:55.892Z,0.50
2023-10-29T20:20:22.571Z,0.60
2023-10-29T20:22:49.251Z,0.65
2023-10-29T20:25:17.402Z,0.70
2023-10-29T20:27:44.406Z,0.60
2023-10-29T20:30:11.537Z,0.85
2023-10-29T20:32:38.296Z,0.50
2023-10-29T20:35:05.719Z,0.55
2023-10-29T20:37:32.423Z,0.50
2023-10-29T20:39:59.144Z,0.35
2023-10-29T20:42:27.393Z,0.40
2023-10-29T20:44:54.244Z,0.50
2023-10-29T20:47:20.852Z,0.35
2023-10-29T20:49:47.796Z,0.47
2023-10-29T20:52:14.554Z,0.55
2023-10-29T20:54:41.218Z,0.50
2023-10-29T20:57:07.987Z,0.47
2023-10-29T20:59:35.979Z,0.40
2023-10-29T21:02:02.698Z,0.40
2023-10-29T21:04:29.452Z,0.50
2023-10-29T21:06:56.186Z,0.60
2023-10-29T21:09:22.856Z,0.50
2023-10-29T21:11:49.558Z,0.60
2023-10-29T21:14:16.145Z,0.60
2023-10-29T21:16:44.246Z,0.50
2023-10-29T21:19:11.372Z,0.55
2023-10-29T21:21:41.075Z,0.50
2023-10-29T21:24:08.400Z,0.60
2023-10-29T21:26:35.113Z,0.75
2023-10-29T21:29:01.850Z,0.70
2023-10-29T21:31:28.583Z,1.35
2023-10-29T21:33:56.620Z,0.50
2023-10-29T21:36:23.324Z,1.35
2023-10-29T21:38:50.042Z,0.40
2023-10-29T21:41:16.811Z,0.50
2023-10-29T21:43:43.462Z,1.00
2023-10-29T21:46:10.319Z,0.40
2023-10-29T21:48:37.333Z,0.40
2023-10-29T21:51:05.954Z,0.40
2023-10-29T21:53:32.568Z,1.83
2023-10-29T21:56:03.224Z,0.88
2023-10-29T21:58:29.917Z,0.40
2023-10-29T22:00:56.668Z,0.50
2023-10-29T22:03:23.597Z,0.40
2023-10-29T22:05:56.921Z,0.50
2023-10-29T22:08:25.243Z,0.40
2023-10-29T22:10:59.208Z,0.40
2023-10-29T22:13:26.179Z,1.65
2023-10-29T22:15:52.825Z,0.40
2023-10-29T22:18:19.542Z,0.77
2023-10-29T22:20:46.170Z,0.75
2023-10-29T22:23:12.866Z,0.43
2023-10-29T22:25:40.940Z,0.43
2023-10-29T22:28:07.618Z,0.30
2023-10-29T22:30:35.174Z,0.77
2023-10-29T22:33:01.957Z,0.45
2023-10-29T22:35:28.643Z,0.45
2023-10-29T22:37:55.278Z,0.85
2023-10-29T22:40:21.860Z,0.50
2023-10-29T22:42:50.019Z,0.47
2023-10-29T22:45:17.045Z,0.40
2023-10-29T22:47:43.731Z,0.88
2023-10-29T22:50:10.473Z,0.50
2023-10-29T22:52:37.207Z,0.50
2023-10-29T22:55:04.240Z,0.40
2023-10-29T22:57:30.925Z,0.40
2023-10-29T22:59:59.056Z,0.35
2023-10-29T23:02:28.712Z,0.70
2023-10-29T23:04:55.511Z,0.50
2023-10-29T23:07:22.317Z,0.50
2023-10-29T23:09:49.139Z,0.60
2023-10-29T23:12:15.737Z,0.55
2023-10-29T23:14:42.330Z,0.63
2023-10-29T23:17:10.359Z,0.30
2023-10-29T23:19:36.930Z,0.40
2023-10-29T23:22:03.872Z,0.55
2023-10-29T23:24:30.527Z,0.65
2023-10-29T23:26:57.046Z,0.70
2023-10-29T23:29:23.801Z,0.68
2023-10-29T23:31:50.543Z,0.60
2023-10-29T23:34:18.766Z,0.65
2023-10-29T23:36:45.395Z,0.60
2023-10-29T23:39:12.053Z,0.50
2023-10-29T23:41:38.732Z,0.55
2023-10-29T23:44:05.985Z,0.55
2023-10-29T23:46:32.698Z,0.50
2023-10-29T23:48:59.327Z,0.52
2023-10-29T23:51:27.260Z,0.32
2023-10-29T23:53:54.146Z,0.50
2023-10-29T23:56:20.777Z,0.50
2023-10-29T23:58:47.464Z,0.40
